createdAt,value
2022-11-16T00:00:23.731Z,7.83
2022-11-16T00:02:54.191Z,7.81
2022-11-16T00:05:28.339Z,7.84
2022-11-16T00:08:00.101Z,7.90
2022-11-16T00:10:30.644Z,7.92
2022-11-16T00:13:01.228Z,7.93
2022-11-16T00:15:31.689Z,7.93
2022-11-16T00:18:02.171Z,7.95
2022-11-16T00:20:32.944Z,7.96
2022-11-16T00:23:03.399Z,7.98
2022-11-16T00:25:36.141Z,8.00
2022-11-16T00:28:06.684Z,8.02
2022-11-16T00:30:37.154Z,8.02
2022-11-16T00:33:08.823Z,8.02
2022-11-16T00:35:42.471Z,8.02
2022-11-16T00:38:12.979Z,8.00
2022-11-16T00:40:43.540Z,7.98
2022-11-16T00:43:14.216Z,7.93
2022-11-16T00:45:44.751Z,7.95
2022-11-16T00:48:15.404Z,7.91
2022-11-16T00:50:46.942Z,7.95
2022-11-16T00:53:21.118Z,7.96
2022-11-16T00:55:52.244Z,7.98
2022-11-16T00:58:24.308Z,7.99
2022-11-16T01:01:07.291Z,8.00
2022-11-16T01:03:38.630Z,8.00
2022-11-16T01:06:13.384Z,8.01
2022-11-16T01:08:44.776Z,8.01
2022-11-16T01:11:46.813Z,8.02
2022-11-16T01:14:17.593Z,7.98
2022-11-16T01:16:51.535Z,7.97
2022-11-16T01:19:23.898Z,7.97
2022-11-16T01:21:54.351Z,7.95
2022-11-16T01:24:25.326Z,7.91
2022-11-16T01:26:58.149Z,7.91
2022-11-16T01:29:33.078Z,7.93
2022-11-16T01:32:05.451Z,7.95
2022-11-16T01:34:37.005Z,7.96
2022-11-16T01:37:22.350Z,7.98
2022-11-16T01:39:53.711Z,7.99
2022-11-16T01:42:27.145Z,7.98
2022-11-16T01:45:16.508Z,7.99
2022-11-16T01:47:47.775Z,8.02
2022-11-16T01:50:22.351Z,8.03
2022-11-16T01:52:55.022Z,8.04
2022-11-16T01:55:28.629Z,8.04
2022-11-16T01:58:19.536Z,7.99
2022-11-16T02:00:53.541Z,7.97
2022-11-16T02:03:32.624Z,7.97
2022-11-16T02:06:25.951Z,7.95
2022-11-16T02:09:31.939Z,7.91
2022-11-16T02:12:19.325Z,7.91
2022-11-16T02:15:04.461Z,7.95
2022-11-16T02:17:49.588Z,8.01
2022-11-16T02:20:55.898Z,8.05
2022-11-16T02:24:01.985Z,8.06
2022-11-16T02:26:47.010Z,8.07
2022-11-16T02:29:28.923Z,8.07
2022-11-16T02:32:06.227Z,8.08
2022-11-16T02:34:41.699Z,8.08
2022-11-16T02:37:15.904Z,8.08
2022-11-16T02:39:49.220Z,8.08
2022-11-16T02:42:23.892Z,8.07
2022-11-16T02:44:56.745Z,8.08
2022-11-16T02:47:31.560Z,8.07
2022-11-16T02:50:06.187Z,8.05
2022-11-16T02:52:38.619Z,8.03
2022-11-16T02:55:11.650Z,8.04
2022-11-16T02:57:49.311Z,8.03
2022-11-16T03:00:23.594Z,8.04
2022-11-16T03:03:12.398Z,8.05
2022-11-16T03:05:46.129Z,8.07
2022-11-16T03:08:24.004Z,8.10
2022-11-16T03:11:17.455Z,8.08
2022-11-16T03:13:49.822Z,8.05
2022-11-16T03:16:24.194Z,8.04
2022-11-16T03:18:58.927Z,8.06
2022-11-16T03:21:37.191Z,8.08
2022-11-16T03:24:09.623Z,8.07
2022-11-16T03:26:48.347Z,8.10
2022-11-16T03:29:27.559Z,8.12
2022-11-16T03:32:05.743Z,8.14
2022-11-16T03:34:39.106Z,8.17
2022-11-16T03:37:10.786Z,8.19
2022-11-16T03:39:42.798Z,8.20
2022-11-16T03:42:15.038Z,8.20
2022-11-16T03:44:49.868Z,8.20
2022-11-16T03:47:20.403Z,8.21
2022-11-16T03:49:51.262Z,8.21
2022-11-16T03:52:22.431Z,8.18
2022-11-16T03:54:53.354Z,8.16
2022-11-16T03:57:24.078Z,8.20
2022-11-16T03:59:57.859Z,8.25
2022-11-16T04:02:28.353Z,8.30
2022-11-16T04:05:17.648Z,8.34
2022-11-16T04:08:06.854Z,8.35
2022-11-16T04:10:55.162Z,8.37
2022-11-16T04:13:48.137Z,8.35
2022-11-16T04:16:36.348Z,8.35
2022-11-16T04:19:27.774Z,8.38
2022-11-16T04:22:19.823Z,8.40
2022-11-16T04:24:55.907Z,8.41
2022-11-16T04:27:48.229Z,8.43
2022-11-16T04:30:19.626Z,8.44
2022-11-16T04:33:08.620Z,8.42
2022-11-16T04:35:56.605Z,8.39
2022-11-16T04:38:27.151Z,8.38
2022-11-16T04:40:57.664Z,8.37
2022-11-16T04:43:29.284Z,8.38
2022-11-16T04:46:17.293Z,8.40
2022-11-16T04:48:47.824Z,8.40
2022-11-16T04:51:18.343Z,8.40
2022-11-16T04:53:49.129Z,8.39
2022-11-16T04:56:23.381Z,8.36
2022-11-16T04:58:53.865Z,8.34
2022-11-16T05:01:45.160Z,8.34
2022-11-16T05:04:16.591Z,8.37
2022-11-16T05:06:48.042Z,8.40
2022-11-16T05:09:18.955Z,8.42
2022-11-16T05:11:49.521Z,8.44
2022-11-16T05:14:20.129Z,8.44
2022-11-16T05:16:51.854Z,8.45
2022-11-16T05:19:39.737Z,8.48
2022-11-16T05:22:10.317Z,8.50
2022-11-16T05:24:41.159Z,8.51
2022-11-16T05:27:13.951Z,8.52
2022-11-16T05:29:45.435Z,8.50
2022-11-16T05:32:18.633Z,8.46
2022-11-16T05:34:49.289Z,8.42
2022-11-16T05:37:21.098Z,8.39
2022-11-16T05:39:51.657Z,8.35
2022-11-16T05:42:23.676Z,8.33
2022-11-16T05:44:54.501Z,8.27
2022-11-16T05:47:25.045Z,8.30
2022-11-16T05:49:55.731Z,8.31
2022-11-16T05:52:27.684Z,8.32
2022-11-16T05:55:01.943Z,8.30
2022-11-16T05:57:33.355Z,8.26
2022-11-16T06:00:05.289Z,8.23
2022-11-16T06:02:55.780Z,8.22
2022-11-16T06:05:30.534Z,8.21
2022-11-16T06:08:01.947Z,8.18
2022-11-16T06:10:34.023Z,8.14
2022-11-16T06:13:04.592Z,8.08
2022-11-16T06:15:39.590Z,8.01
2022-11-16T06:18:10.919Z,7.96
2022-11-16T06:20:42.071Z,7.92
2022-11-16T06:23:13.541Z,7.87
2022-11-16T06:25:44.673Z,7.82
2022-11-16T06:28:15.984Z,7.79
2022-11-16T06:30:46.538Z,7.76
2022-11-16T06:33:17.568Z,7.73
2022-11-16T06:35:48.131Z,7.72
2022-11-16T06:38:23.430Z,7.71
2022-11-16T06:40:55.839Z,7.69
2022-11-16T06:43:27.710Z,7.68
2022-11-16T06:45:59.468Z,7.66
2022-11-16T06:48:31.605Z,7.67
2022-11-16T06:51:02.757Z,7.66
2022-11-16T06:53:33.327Z,7.65
2022-11-16T06:56:05.911Z,7.66
2022-11-16T06:58:42.803Z,7.67
2022-11-16T07:01:14.456Z,7.66
2022-11-16T07:03:46.025Z,7.66
2022-11-16T07:06:16.796Z,7.67
2022-11-16T07:08:48.747Z,7.67
2022-11-16T07:11:22.144Z,7.68
2022-11-16T07:13:52.694Z,7.65
2022-11-16T07:16:24.361Z,7.64
2022-11-16T07:19:01.110Z,7.66
2022-11-16T07:21:33.419Z,7.68
2022-11-16T07:24:06.294Z,7.69
2022-11-16T07:26:36.848Z,7.70
2022-11-16T07:29:13.952Z,7.72
2022-11-16T07:31:47.087Z,7.74
2022-11-16T07:34:35.975Z,7.75
2022-11-16T07:37:12.662Z,7.76
2022-11-16T07:39:44.013Z,7.74
2022-11-16T07:42:14.872Z,7.80
2022-11-16T07:45:12.088Z,7.83
2022-11-16T07:47:48.064Z,7.83
2022-11-16T07:50:24.290Z,7.83
2022-11-16T07:52:57.890Z,7.83
2022-11-16T07:55:32.042Z,7.84
2022-11-16T07:58:03.447Z,7.84
2022-11-16T08:00:34.727Z,7.84
2022-11-16T08:03:10.978Z,7.84
2022-11-16T08:05:41.904Z,7.84
2022-11-16T08:08:12.728Z,7.85
2022-11-16T08:10:44.156Z,7.87
2022-11-16T08:13:15.482Z,7.87
2022-11-16T08:15:46.945Z,7.87
2022-11-16T08:18:19.546Z,7.87
2022-11-16T08:20:51.292Z,7.90
2022-11-16T08:23:22.271Z,7.93
2022-11-16T08:25:53.136Z,7.95
2022-11-16T08:28:24.397Z,7.96
2022-11-16T08:30:58.352Z,7.99
2022-11-16T08:33:31.702Z,8.01
2022-11-16T08:36:11.066Z,8.02
2022-11-16T08:38:45.274Z,8.03
2022-11-16T08:41:17.360Z,8.06
2022-11-16T08:43:50.881Z,8.10
2022-11-16T08:46:22.841Z,8.13
2022-11-16T08:48:59.003Z,8.17
2022-11-16T08:51:29.730Z,8.20
2022-11-16T08:54:06.360Z,8.21
2022-11-16T08:56:38.251Z,8.21
2022-11-16T08:59:09.146Z,8.22
2022-11-16T09:01:43.151Z,8.28
2022-11-16T09:04:13.880Z,8.35
2022-11-16T09:06:44.537Z,8.40
2022-11-16T09:09:15.238Z,8.45
2022-11-16T09:11:46.333Z,8.48
2022-11-16T09:14:17.114Z,8.54
2022-11-16T09:16:47.806Z,8.57
2022-11-16T09:19:19.040Z,8.57
2022-11-16T09:21:50.500Z,8.60
2022-11-16T09:24:21.527Z,8.65
2022-11-16T09:26:52.414Z,8.72
2022-11-16T09:29:23.234Z,8.76
2022-11-16T09:31:53.843Z,8.79
2022-11-16T09:34:24.833Z,8.84
2022-11-16T09:36:55.598Z,8.85
2022-11-16T09:39:31.217Z,8.86
2022-11-16T09:42:15.722Z,8.88
2022-11-16T09:45:04.590Z,8.89
2022-11-16T09:47:45.872Z,8.90
2022-11-16T09:50:37.103Z,8.91
2022-11-16T09:53:21.738Z,8.92
2022-11-16T09:55:54.775Z,8.93
2022-11-16T09:58:33.255Z,8.93
2022-11-16T10:01:04.439Z,8.96
2022-11-16T10:03:44.030Z,8.98
2022-11-16T10:06:22.715Z,8.98
2022-11-16T10:08:56.625Z,8.98
2022-11-16T10:11:43.029Z,8.98
2022-11-16T10:14:33.750Z,8.97
2022-11-16T10:17:15.510Z,8.95
2022-11-16T10:19:51.981Z,8.93
2022-11-16T10:22:36.247Z,8.95
2022-11-16T10:25:15.111Z,8.95
2022-11-16T10:28:03.901Z,8.90
2022-11-16T10:30:41.442Z,8.85
2022-11-16T10:33:15.911Z,8.85
2022-11-16T10:35:52.114Z,8.87
2022-11-16T10:38:26.353Z,8.89
2022-11-16T10:41:02.432Z,8.92
2022-11-16T10:43:34.975Z,8.92
2022-11-16T10:46:16.627Z,8.92
2022-11-16T10:48:56.975Z,8.93
2022-11-16T10:51:27.598Z,8.92
2022-11-16T10:53:58.563Z,8.90
2022-11-16T10:56:32.586Z,8.91
2022-11-16T10:59:05.911Z,8.90
2022-11-16T11:01:39.577Z,8.96
2022-11-16T11:04:19.407Z,8.98
2022-11-16T11:06:52.574Z,8.99
2022-11-16T11:09:29.580Z,9.00
2022-11-16T11:12:24.087Z,9.02
2022-11-16T11:15:07.171Z,9.05
2022-11-16T11:17:39.469Z,9.07
2022-11-16T11:20:23.872Z,9.08
2022-11-16T11:22:59.638Z,9.10
2022-11-16T11:25:34.204Z,9.11
2022-11-16T11:28:18.086Z,9.11
2022-11-16T11:30:58.808Z,9.12
2022-11-16T11:33:34.138Z,9.12
2022-11-16T11:36:08.717Z,9.14
2022-11-16T11:38:59.037Z,9.16
2022-11-16T11:41:35.183Z,9.18
2022-11-16T11:44:14.501Z,9.19
2022-11-16T11:47:42.276Z,9.20
2022-11-16T11:49:51.453Z,9.21
2022-11-16T11:52:27.475Z,9.23
2022-11-16T11:54:58.622Z,9.24
2022-11-16T11:57:29.545Z,9.22
2022-11-16T12:00:01.543Z,9.22
2022-11-16T12:03:21.958Z,9.24
2022-11-16T12:06:11.643Z,9.25
2022-11-16T12:08:58.435Z,9.26
2022-11-16T12:11:38.450Z,9.28
2022-11-16T12:14:25.074Z,9.29
2022-11-16T12:17:02.636Z,9.32
2022-11-16T12:20:05.881Z,9.35
2022-11-16T12:22:58.511Z,9.39
2022-11-16T12:25:42.646Z,9.42
2022-11-16T12:28:25.493Z,9.43
2022-11-16T12:31:10.352Z,9.45
2022-11-16T12:33:52.057Z,9.48
2022-11-16T12:36:30.347Z,9.52
2022-11-16T12:39:13.987Z,9.55
2022-11-16T12:42:05.797Z,9.60
2022-11-16T12:44:50.942Z,9.63
2022-11-16T12:47:29.919Z,9.67
2022-11-16T12:50:22.567Z,9.69
2022-11-16T12:53:11.504Z,9.72
2022-11-16T12:55:49.073Z,9.72
2022-11-16T12:58:27.429Z,9.71
2022-11-16T13:01:10.858Z,9.66
2022-11-16T13:03:48.694Z,9.63
2022-11-16T13:06:21.919Z,9.61
2022-11-16T13:09:02.829Z,9.60
2022-11-16T13:11:38.658Z,9.61
2022-11-16T13:14:13.977Z,9.63
2022-11-16T13:16:44.912Z,9.62
2022-11-16T13:19:18.132Z,9.61
2022-11-16T13:21:56.847Z,9.57
2022-11-16T13:24:41.858Z,9.54
2022-11-16T13:27:24.549Z,9.49
2022-11-16T13:30:00.919Z,9.45
2022-11-16T13:32:50.551Z,9.41
2022-11-16T13:35:23.102Z,9.38
2022-11-16T13:37:54.476Z,9.35
2022-11-16T13:40:28.755Z,9.34
2022-11-16T13:43:15.645Z,9.32
2022-11-16T13:45:56.986Z,9.29
2022-11-16T13:48:33.401Z,9.28
2022-11-16T13:51:07.552Z,9.28
2022-11-16T13:56:51.045Z,9.26
2022-11-16T13:59:27.508Z,9.27
2022-11-16T14:02:00.484Z,9.26
2022-11-16T14:04:42.452Z,9.24
2022-11-16T14:07:32.084Z,9.23
2022-11-16T14:10:05.650Z,9.22
2022-11-16T14:12:59.465Z,9.21
2022-11-16T14:15:36.611Z,9.19
2022-11-16T14:18:37.442Z,9.16
2022-11-16T14:21:44.723Z,9.12
2022-11-16T14:24:29.675Z,9.09
2022-11-16T14:27:10.086Z,9.09
2022-11-16T14:29:57.350Z,9.07
2022-11-16T14:32:32.331Z,9.06
2022-11-16T14:35:06.368Z,9.05
2022-11-16T14:37:41.864Z,9.03
2022-11-16T14:40:22.460Z,9.01
2022-11-16T14:45:50.547Z,8.94
2022-11-16T14:48:25.832Z,8.93
2022-11-16T14:51:07.566Z,8.90
2022-11-16T14:53:41.699Z,8.87
2022-11-16T14:56:15.737Z,8.84
2022-11-16T14:58:56.108Z,8.82
2022-11-16T15:01:30.176Z,8.81
2022-11-16T15:04:03.715Z,8.80
2022-11-16T15:06:41.746Z,8.79
2022-11-16T15:09:20.881Z,8.79
2022-11-16T15:12:11.048Z,8.79
2022-11-16T15:14:47.803Z,8.77
2022-11-16T15:17:22.103Z,8.76
2022-11-16T15:20:01.132Z,8.73
2022-11-16T15:22:33.849Z,8.73
2022-11-16T15:25:04.716Z,8.72
2022-11-16T15:27:41.357Z,8.70
2022-11-16T15:30:22.325Z,8.66
2022-11-16T15:32:54.271Z,8.62
2022-11-16T15:35:28.944Z,8.60
2022-11-16T15:38:18.956Z,8.58
2022-11-16T15:40:53.499Z,8.57
2022-11-16T15:43:26.959Z,8.57
2022-11-16T15:45:58.312Z,8.56
2022-11-16T15:48:30.954Z,8.55
2022-11-16T15:51:16.365Z,8.54
2022-11-16T15:53:48.509Z,8.53
2022-11-16T15:56:23.030Z,8.52
2022-11-16T15:58:55.246Z,8.52
2022-11-16T16:01:26.788Z,8.49
2022-11-16T16:04:00.419Z,8.49
2022-11-16T16:06:49.180Z,8.47
2022-11-16T16:09:29.092Z,8.47
2022-11-16T16:12:18.797Z,8.45
2022-11-16T16:14:51.346Z,8.44
2022-11-16T16:17:27.109Z,8.38
2022-11-16T16:20:00.211Z,8.39
2022-11-16T16:22:33.898Z,8.39
2022-11-16T16:25:05.505Z,8.39
2022-11-16T16:27:41.245Z,8.38
2022-11-16T16:30:16.836Z,8.36
2022-11-16T16:32:51.350Z,8.34
2022-11-16T16:35:24.194Z,8.28
2022-11-16T16:37:57.553Z,8.27
2022-11-16T16:40:28.253Z,8.25
2022-11-16T16:42:59.469Z,8.24
2022-11-16T16:45:38.093Z,8.19
2022-11-16T16:48:09.402Z,8.19
2022-11-16T16:50:40.501Z,8.19
2022-11-16T16:53:14.014Z,8.21
2022-11-16T16:55:47.092Z,8.25
2022-11-16T16:58:16.549Z,8.27
2022-11-16T17:00:47.272Z,8.26
2022-11-16T17:03:18.068Z,8.26
2022-11-16T17:05:48.755Z,8.24
2022-11-16T17:08:19.494Z,8.25
2022-11-16T17:10:52.230Z,8.23
2022-11-16T17:13:22.902Z,8.22
2022-11-16T17:15:53.629Z,8.23
2022-11-16T17:18:26.227Z,8.21
2022-11-16T17:20:57.210Z,8.21
2022-11-16T17:23:31.371Z,8.20
2022-11-16T17:26:03.855Z,8.17
2022-11-16T17:28:34.919Z,8.18
2022-11-16T17:31:08.422Z,8.17
2022-11-16T17:33:40.716Z,8.15
2022-11-16T17:36:13.981Z,8.13
2022-11-16T17:38:44.928Z,8.12
2022-11-16T17:41:17.262Z,8.12
2022-11-16T17:43:48.544Z,8.12
2022-11-16T17:46:21.736Z,8.11
2022-11-16T17:48:53.126Z,8.11
2022-11-16T17:51:25.645Z,8.09
2022-11-16T17:53:56.661Z,8.09
2022-11-16T17:56:28.800Z,8.10
2022-11-16T17:58:59.803Z,8.12
2022-11-16T18:01:31.562Z,8.12
2022-11-16T18:04:03.703Z,8.11
2022-11-16T18:06:35.680Z,8.09
2022-11-16T18:09:06.640Z,8.12
2022-11-16T18:11:39.515Z,8.09
2022-11-16T18:14:10.635Z,8.05
2022-11-16T18:16:43.467Z,8.02
2022-11-16T18:19:20.635Z,7.99
2022-11-16T18:21:51.563Z,7.99
2022-11-16T18:24:22.486Z,7.97
2022-11-16T18:26:53.928Z,7.95
2022-11-16T18:29:25.085Z,7.94
2022-11-16T18:31:55.734Z,7.91
2022-11-16T18:34:26.449Z,7.88
2022-11-16T18:36:57.216Z,7.86
2022-11-16T18:39:27.901Z,7.84
2022-11-16T18:41:58.596Z,7.79
2022-11-16T18:44:29.374Z,7.76
2022-11-16T18:47:00.094Z,7.72
2022-11-16T18:49:31.037Z,7.69
2022-11-16T18:52:01.960Z,7.65
2022-11-16T18:54:32.745Z,7.58
2022-11-16T18:57:03.537Z,7.53
2022-11-16T18:59:34.277Z,7.49
2022-11-16T19:02:05.260Z,7.46
2022-11-16T19:04:36.198Z,7.46
2022-11-16T19:07:07.650Z,7.47
2022-11-16T19:09:38.467Z,7.46
2022-11-16T19:12:09.294Z,7.43
2022-11-16T19:14:40.548Z,7.42
2022-11-16T19:17:11.275Z,7.41
2022-11-16T19:19:42.375Z,7.41
2022-11-16T19:22:13.064Z,7.41
2022-11-16T19:24:43.756Z,7.42
2022-11-16T19:27:16.709Z,7.41
2022-11-16T19:29:47.473Z,7.38
2022-11-16T19:32:18.129Z,7.29
2022-11-16T19:34:49.012Z,7.19
2022-11-16T19:37:19.922Z,7.17
2022-11-16T19:39:50.853Z,7.11
2022-11-16T19:42:21.524Z,7.07
2022-11-16T19:44:54.376Z,7.07
2022-11-16T19:47:26.156Z,7.05
2022-11-16T19:49:57.178Z,7.04
2022-11-16T19:52:28.224Z,7.02
2022-11-16T19:54:59.249Z,7.03
2022-11-16T19:57:30.046Z,7.04
2022-11-16T20:00:00.860Z,7.04
2022-11-16T20:02:31.512Z,7.03
2022-11-16T20:05:02.456Z,7.01
2022-11-16T20:07:38.083Z,6.97
2022-11-16T20:10:10.184Z,6.93
2022-11-16T20:12:41.120Z,6.93
2022-11-16T20:15:12.972Z,6.89
2022-11-16T20:17:43.896Z,6.85
2022-11-16T20:20:15.552Z,6.84
2022-11-16T20:22:48.765Z,6.80
2022-11-16T20:25:19.844Z,6.83
2022-11-16T20:27:51.474Z,6.85
2022-11-16T20:30:22.686Z,6.86
2022-11-16T20:32:53.505Z,6.87
2022-11-16T20:35:24.633Z,6.85
2022-11-16T20:37:55.405Z,6.84
2022-11-16T20:40:26.075Z,6.86
2022-11-16T20:42:59.182Z,6.87
2022-11-16T20:45:33.013Z,6.87
2022-11-16T20:48:04.352Z,6.87
2022-11-16T20:50:35.436Z,6.85
2022-11-16T20:53:06.063Z,6.84
2022-11-16T20:55:36.846Z,6.80
2022-11-16T20:58:07.517Z,6.77
2022-11-16T21:00:38.184Z,6.73
2022-11-16T21:03:08.878Z,6.69
2022-11-16T21:05:45.410Z,6.66
2022-11-16T21:08:16.207Z,6.65
2022-11-16T21:10:48.295Z,6.66
2022-11-16T21:13:38.463Z,6.63
2022-11-16T21:16:12.207Z,6.62
2022-11-16T21:18:43.565Z,6.62
2022-11-16T21:21:15.419Z,6.63
2022-11-16T21:23:51.671Z,6.63
2022-11-16T21:26:24.925Z,6.63
2022-11-16T21:28:56.037Z,6.63
2022-11-16T21:31:29.795Z,6.62
2022-11-16T21:34:01.593Z,6.63
2022-11-16T21:36:34.417Z,6.64
2022-11-16T21:39:05.435Z,6.65
2022-11-16T21:41:36.150Z,6.62
2022-11-16T21:44:07.101Z,6.55
2022-11-16T21:46:37.760Z,6.52
2022-11-16T21:49:09.469Z,6.53
2022-11-16T21:51:40.195Z,6.56
2022-11-16T21:54:11.465Z,6.61
2022-11-16T21:56:42.206Z,6.64
2022-11-16T21:59:12.857Z,6.66
2022-11-16T22:02:02.296Z,6.68
2022-11-16T22:04:50.596Z,6.72
2022-11-16T22:07:41.578Z,6.76
2022-11-16T22:10:13.869Z,6.78
2022-11-16T22:12:44.635Z,6.78
2022-11-16T22:15:15.416Z,6.77
2022-11-16T22:17:46.370Z,6.78
2022-11-16T22:20:27.199Z,6.78
2022-11-16T22:22:57.871Z,6.76
2022-11-16T22:25:28.663Z,6.75
2022-11-16T22:28:19.554Z,6.72
2022-11-16T22:30:52.081Z,6.73
2022-11-16T22:33:23.012Z,6.72
2022-11-16T22:35:53.556Z,6.74
2022-11-16T22:38:24.353Z,6.75
2022-11-16T22:40:56.452Z,6.75
2022-11-16T22:43:29.721Z,6.69
2022-11-16T22:46:04.938Z,6.68
2022-11-16T22:48:36.932Z,6.67
2022-11-16T22:51:13.197Z,6.67
2022-11-16T22:53:43.780Z,6.65
2022-11-16T22:56:14.790Z,6.62
2022-11-16T22:58:45.519Z,6.61
2022-11-16T23:01:16.507Z,6.60
2022-11-16T23:03:47.710Z,6.62
2022-11-16T23:06:18.596Z,6.63
2022-11-16T23:08:49.199Z,6.79
2022-11-16T23:11:39.297Z,7.00
2022-11-16T23:14:31.210Z,7.22
2022-11-16T23:17:02.190Z,7.40
2022-11-16T23:19:50.385Z,7.52
2022-11-16T23:22:40.199Z,7.61
2022-11-16T23:25:30.991Z,7.68
2022-11-16T23:28:06.353Z,7.81
2022-11-16T23:30:37.738Z,7.93
2022-11-16T23:33:08.920Z,8.01
2022-11-16T23:35:39.516Z,8.02
2022-11-16T23:38:10.603Z,7.93
2022-11-16T23:40:42.219Z,7.78
2022-11-16T23:43:31.261Z,7.60
2022-11-16T23:46:01.917Z,7.59
2022-11-16T23:48:32.599Z,7.65
2022-11-16T23:51:03.264Z,7.71
2022-11-16T23:53:34.241Z,7.77
2022-11-16T23:56:06.383Z,7.74
2022-11-16T23:58:37.608Z,7.73
